Nearby METAR Reports

 

KNTU - NAS Oceana, Virginia Beach, Virginia, USA
Distance from station: N 3.2mi, 5.1km
Updated: Thu, 13-May-2021 4:56pm EDT
Few Clouds
Few Clouds
 Wind from E
Wind: E 8 mph , 13 km/h
Temperature: 70°F , 21°C
Dew Point: 36°F , 2°C
Humidity: 29%
Barometer: 30.20 inHg , 1022.7 hPa
Clouds: Few Clouds
Visibility: 10 miles , 16 km
Cloud details: Few Clouds 6000 ft
2021/05/13 20:56 KNTU 132056Z 10007KT 10SM FEW060 21/02 A3020 RMK AO2 SLP229 T02060022 56010
KNFE - Fentress NALF, Virginia Beach Virginia, USA
Distance from station: SW 7.6mi, 12.2km
Updated: Thu, 13-May-2021 4:56pm EDT
Clear
Clear
 Wind from varies
Wind: varies 7 mph , 11 km/h
Temperature: 70°F , 21°C
Dew Point: 30°F , -1°C
Humidity: 23%
Barometer: 30.20 inHg , 1022.7 hPa
Clouds: Clear
Visibility: 10 miles , 16 km
2021/05/13 20:56 KNFE 132056Z AUTO VRB06KT 10SM CLR 21/M01 A3020 RMK AO2 SLP229 T02061006 56010
 
KORF - Norfolk International, Norfolk, Virginia, USA
Distance from station: NW 12.2mi, 19.6km
Updated: Thu, 13-May-2021 4:51pm EDT
Clear
Clear
 Wind from NNE
Wind: NNE 10 mph , 17 km/h
Temperature: 68°F , 20°C
Dew Point: 39°F , 4°C
Humidity: 35%
Barometer: 30.20 inHg , 1022.7 hPa
Clouds: Clear
Visibility: 10 miles , 16 km
2021/05/13 20:51 KORF 132051Z 03009KT 10SM CLR 20/04 A3020 RMK AO2 SLP227 T02000039 56012
KCPK - Cheasapeak Municipal, Cheasapeak, Virginia, USA
Distance from station: SW 17.2mi, 27.7km
Updated: Thu, 13-May-2021 5:15pm EDT
Haze, Clear
Haze, Clear
 Wind from NNE
Wind: NNE 9 mph , 15 km/h
Barometer: 30.21 inHg , 1023 hPa
Summary: Haze
Clouds: Clear
Visibility: 5 miles , 8 km
2021/05/13 21:15 KCPK 132115Z AUTO 03008KT 5SM HZ CLR A3021 RMK AO2
 
KNGU - NAS Norfolk, Norfolk, Virginia, USA
Distance from station: NW 17.7mi, 28.5km
Updated: Thu, 13-May-2021 4:59pm EDT
Few Clouds
Few Clouds
 Wind from ENE
Wind: ENE 9 mph , 15 km/h
Temperature: 68°F , 20°C
Dew Point: 41°F , 5°C
Humidity: 38%
Barometer: 30.22 inHg , 1023.4 hPa
Clouds: Few Clouds
Visibility: 10 miles , 16 km
Cloud details: Few Clouds 3000 ft
2021/05/13 20:59 KNGU 132059Z 07008KT 10SM FEW030 20/05 A3022 RMK AO2 SLP233 T02000050 56011 $